createdAt,value
2017-06-05T00:01:29.972Z,101856.84
2017-06-05T00:03:56.205Z,101852.50
2017-06-05T00:06:22.448Z,101856.17
2017-06-05T00:08:48.687Z,101858.23
2017-06-05T00:11:15.079Z,101853.42
2017-06-05T00:13:41.321Z,101850.57
2017-06-05T00:17:36.907Z,101851.78
2017-06-05T00:20:03.180Z,101841.58
2017-06-05T00:22:29.514Z,101844.16
2017-06-05T00:24:55.791Z,101842.58
2017-06-05T00:27:22.011Z,101848.72
2017-06-05T00:29:48.320Z,101840.12
2017-06-05T00:32:14.586Z,101837.14
2017-06-05T00:34:41.031Z,101837.86
2017-06-05T00:37:07.287Z,101834.81
2017-06-05T00:39:33.594Z,101835.40
2017-06-05T00:41:59.819Z,101833.59
2017-06-05T00:44:26.052Z,101822.86
2017-06-05T00:46:52.393Z,101829.69
2017-06-05T00:49:18.640Z,101829.58
2017-06-05T00:51:44.912Z,101821.19
2017-06-05T00:54:11.146Z,101823.56
2017-06-05T00:56:37.382Z,101824.23
2017-06-05T00:59:03.765Z,101820.03
2017-06-05T01:01:30.056Z,101813.22
2017-06-05T01:03:56.320Z,101809.38
2017-06-05T01:06:22.615Z,101806.20
2017-06-05T01:08:48.893Z,101803.58
2017-06-05T01:11:15.135Z,101799.45
2017-06-05T01:13:41.762Z,101800.94
2017-06-05T01:17:36.559Z,101801.23
2017-06-05T01:20:02.819Z,101794.84
2017-06-05T01:22:29.143Z,101796.72
2017-06-05T01:24:55.407Z,101799.20
2017-06-05T01:27:21.655Z,101802.74
2017-06-05T01:29:47.897Z,101796.35
2017-06-05T01:32:14.235Z,101797.88
2017-06-05T01:34:40.499Z,101794.02
2017-06-05T01:37:06.748Z,101791.62
2017-06-05T01:39:33.000Z,101793.03
2017-06-05T01:41:59.358Z,101791.09
2017-06-05T01:44:25.694Z,101790.23
2017-06-05T01:46:51.937Z,101793.19
2017-06-05T01:49:18.219Z,101794.87
2017-06-05T01:51:44.507Z,101790.78
2017-06-05T01:54:10.768Z,101789.94
2017-06-05T01:56:37.058Z,101785.34
2017-06-05T01:59:03.296Z,101783.84
2017-06-05T02:01:30.078Z,101785.27
2017-06-05T02:03:56.360Z,101778.05
2017-06-05T02:06:22.607Z,101776.12
2017-06-05T02:08:48.934Z,101771.16
2017-06-05T02:11:15.163Z,101776.67
2017-06-05T02:13:41.457Z,101770.11
2017-06-05T02:17:36.678Z,101772.18
2017-06-05T02:20:03.002Z,101767.77
2017-06-05T02:22:29.231Z,101761.39
2017-06-05T02:24:55.484Z,101759.60
2017-06-05T02:27:21.702Z,101760.04
2017-06-05T02:29:47.931Z,101757.52
2017-06-05T02:32:14.248Z,101759.81
2017-06-05T02:34:40.504Z,101763.20
2017-06-05T02:37:06.760Z,101762.50
2017-06-05T02:39:33.033Z,101761.66
2017-06-05T02:41:59.882Z,101755.63
2017-06-05T02:44:26.280Z,101755.29
2017-06-05T02:46:52.519Z,101753.06
2017-06-05T02:49:18.753Z,101743.06
2017-06-05T02:51:45.000Z,101743.06
2017-06-05T02:54:11.227Z,101748.00
2017-06-05T02:56:37.587Z,101743.89
2017-06-05T02:59:03.844Z,101740.45
2017-06-05T03:01:30.063Z,101730.53
2017-06-05T03:03:56.311Z,101737.35
2017-06-05T03:06:22.555Z,101731.13
2017-06-05T03:08:48.948Z,101736.70
2017-06-05T03:11:22.208Z,101738.86
2017-06-05T03:13:48.535Z,101733.61
2017-06-05T03:17:37.348Z,101735.59
2017-06-05T03:20:03.667Z,101743.41
2017-06-05T03:22:30.035Z,101733.20
2017-06-05T03:24:56.289Z,101732.92
2017-06-05T03:27:22.570Z,101730.92
2017-06-05T03:29:48.914Z,101730.61
2017-06-05T03:32:15.168Z,101731.56
2017-06-05T03:34:41.497Z,101724.42
2017-06-05T03:37:07.811Z,101725.63
2017-06-05T03:39:34.039Z,101725.27
2017-06-05T03:42:00.275Z,101725.98
2017-06-05T03:44:26.579Z,101729.83
2017-06-05T03:46:52.907Z,101733.95
2017-06-05T03:49:19.143Z,101728.53
2017-06-05T03:51:45.366Z,101723.96
2017-06-05T03:54:11.714Z,101723.17
2017-06-05T03:56:37.950Z,101718.47
2017-06-05T03:59:04.179Z,101717.02
2017-06-05T04:01:30.464Z,101714.41
2017-06-05T04:03:56.698Z,101707.09
2017-06-05T04:06:23.026Z,101707.69
2017-06-05T04:08:49.255Z,101710.28
2017-06-05T04:11:15.514Z,101714.34
2017-06-05T04:13:41.810Z,101707.80
2017-06-05T04:17:37.639Z,101711.25
2017-06-05T04:20:03.978Z,101707.87
2017-06-05T04:22:30.306Z,101708.91
2017-06-05T04:24:56.547Z,101706.70
2017-06-05T04:27:22.874Z,101706.77
2017-06-05T04:29:49.113Z,101706.00
2017-06-05T04:32:15.347Z,101705.63
2017-06-05T04:34:43.596Z,101699.48
2017-06-05T04:37:09.852Z,101701.78
2017-06-05T04:39:36.156Z,101700.20
2017-06-05T04:42:02.375Z,101699.59
2017-06-05T04:44:28.714Z,101700.91
2017-06-05T04:46:54.965Z,101702.06
2017-06-05T04:49:21.226Z,101701.27
2017-06-05T04:51:47.663Z,101706.00
2017-06-05T04:54:13.917Z,101699.98
2017-06-05T04:56:40.154Z,101697.91
2017-06-05T04:59:06.410Z,101698.80
2017-06-05T05:01:32.655Z,101701.91
2017-06-05T05:03:59.019Z,101696.84
2017-06-05T05:06:25.276Z,101699.45
2017-06-05T05:08:51.522Z,101694.97
2017-06-05T05:11:17.794Z,101702.41
2017-06-05T05:13:44.041Z,101697.00
2017-06-05T05:17:38.985Z,101700.11
2017-06-05T05:20:05.224Z,101691.77
2017-06-05T05:22:31.541Z,101682.68
2017-06-05T05:24:57.767Z,101685.77
2017-06-05T05:27:24.073Z,101683.63
2017-06-05T05:29:50.317Z,101682.64
2017-06-05T05:32:16.571Z,101676.02
2017-06-05T05:34:43.012Z,101680.36
2017-06-05T05:37:09.260Z,101683.97
2017-06-05T05:39:35.476Z,101677.30
2017-06-05T05:42:01.754Z,101680.95
2017-06-05T05:44:27.994Z,101678.98
2017-06-05T05:46:54.333Z,101675.55
2017-06-05T05:49:20.582Z,101680.04
2017-06-05T05:51:46.868Z,101677.49
2017-06-05T05:54:13.117Z,101678.31
2017-06-05T05:56:39.346Z,101678.22
2017-06-05T05:59:05.697Z,101678.18
2017-06-05T06:01:31.970Z,101680.98
2017-06-05T06:03:58.199Z,101679.08
2017-06-05T06:06:24.427Z,101675.90
2017-06-05T06:08:50.697Z,101675.34
2017-06-05T06:11:17.029Z,101679.20
2017-06-05T06:13:43.248Z,101678.22
2017-06-05T06:17:36.727Z,101673.96
2017-06-05T06:20:03.032Z,101675.34
2017-06-05T06:22:29.270Z,101677.97
2017-06-05T06:24:55.503Z,101677.09
2017-06-05T06:27:21.850Z,101680.26
2017-06-05T06:29:48.102Z,101672.89
2017-06-05T06:32:14.337Z,101665.05
2017-06-05T06:34:40.563Z,101674.48
2017-06-05T06:37:06.879Z,101673.95
2017-06-05T06:39:33.210Z,101670.03
2017-06-05T06:41:59.442Z,101679.78
2017-06-05T06:44:25.722Z,101679.82
2017-06-05T06:46:51.962Z,101679.91
2017-06-05T06:49:18.264Z,101677.92
2017-06-05T06:51:44.751Z,101677.22
2017-06-05T06:54:11.088Z,101670.05
2017-06-05T06:56:37.351Z,101671.05
2017-06-05T06:59:03.804Z,101660.23
2017-06-05T07:01:30.136Z,101659.88
2017-06-05T07:03:56.556Z,101649.53
2017-06-05T07:06:22.883Z,101646.05
2017-06-05T07:08:49.169Z,101661.80
2017-06-05T07:11:15.412Z,101651.21
2017-06-05T07:13:41.668Z,101649.28
2017-06-05T07:17:36.307Z,101651.13
2017-06-05T07:20:02.595Z,101652.83
2017-06-05T07:22:28.955Z,101649.50
2017-06-05T07:24:55.250Z,101647.95
2017-06-05T07:27:21.740Z,101642.17
2017-06-05T07:29:48.260Z,101640.91
2017-06-05T07:32:14.655Z,101636.03
2017-06-05T07:34:40.966Z,101634.36
2017-06-05T07:37:07.254Z,101631.45
2017-06-05T07:39:33.495Z,101626.52
2017-06-05T07:41:59.835Z,101631.20
2017-06-05T07:44:26.618Z,101625.31
2017-06-05T07:46:53.185Z,101626.76
2017-06-05T07:49:19.540Z,101619.83
2017-06-05T07:51:45.832Z,101619.33
2017-06-05T07:54:12.362Z,101614.14
2017-06-05T07:56:38.611Z,101612.03
2017-06-05T07:59:05.566Z,101605.37
2017-06-05T08:01:32.830Z,101602.41
2017-06-05T08:03:59.302Z,101608.41
2017-06-05T08:06:25.621Z,101606.42
2017-06-05T08:08:51.891Z,101595.94
2017-06-05T08:11:18.188Z,101608.62
2017-06-05T08:13:44.439Z,101606.95
2017-06-05T08:17:36.088Z,101595.72
2017-06-05T08:20:02.353Z,101592.84
2017-06-05T08:22:28.616Z,101579.34
2017-06-05T08:24:54.862Z,101581.84
2017-06-05T08:27:21.135Z,101583.13
2017-06-05T08:29:47.375Z,101576.08
2017-06-05T08:32:13.706Z,101568.80
2017-06-05T08:34:40.054Z,101572.52
2017-06-05T08:37:06.345Z,101568.08
2017-06-05T08:39:32.654Z,101557.55
2017-06-05T08:41:58.947Z,101562.20
2017-06-05T08:44:25.212Z,101570.21
2017-06-05T08:46:51.454Z,101560.43
2017-06-05T08:49:17.727Z,101560.89
2017-06-05T08:51:43.961Z,101567.43
2017-06-05T08:54:10.198Z,101561.48
2017-06-05T08:56:36.484Z,101561.11
2017-06-05T08:59:02.731Z,101559.79
2017-06-05T09:01:29.448Z,101542.95
2017-06-05T09:03:56.037Z,101547.47
2017-06-05T09:06:22.371Z,101532.73
2017-06-05T09:08:48.631Z,101537.73
2017-06-05T09:11:14.881Z,101533.62
2017-06-05T09:13:41.210Z,101530.80
2017-06-05T09:17:37.381Z,101524.45
2017-06-05T09:20:03.648Z,101518.06
2017-06-05T09:22:29.924Z,101521.34
2017-06-05T09:24:56.304Z,101525.38
2017-06-05T09:27:22.662Z,101515.53
2017-06-05T09:29:52.521Z,101502.67
2017-06-05T09:32:18.882Z,101500.36
2017-06-05T09:34:45.207Z,101512.07
2017-06-05T09:37:11.521Z,101504.64
2017-06-05T09:39:38.850Z,101501.87
2017-06-05T09:42:05.236Z,101492.97
2017-06-05T09:44:31.483Z,101500.70
2017-06-05T09:46:57.784Z,101506.75
2017-06-05T09:49:24.116Z,101493.05
2017-06-05T09:51:50.422Z,101486.44
2017-06-05T09:54:16.768Z,101479.92
2017-06-05T09:56:43.087Z,101480.43
2017-06-05T09:59:09.384Z,101478.23
2017-06-05T10:01:35.644Z,101478.67
2017-06-05T10:04:01.904Z,101474.72
2017-06-05T10:06:28.228Z,101477.48
2017-06-05T10:08:54.648Z,101465.18
2017-06-05T10:11:20.933Z,101462.84
2017-06-05T10:13:47.237Z,101451.94
2017-06-05T10:17:37.188Z,101447.13
2017-06-05T10:20:03.516Z,101457.92
2017-06-05T10:22:29.794Z,101456.02
2017-06-05T10:24:56.101Z,101451.84
2017-06-05T10:27:22.336Z,101450.44
2017-06-05T10:29:48.590Z,101445.16
2017-06-05T10:32:14.916Z,101449.16
2017-06-05T10:34:41.199Z,101449.69
2017-06-05T10:37:07.448Z,101436.74
2017-06-05T10:39:33.759Z,101433.32
2017-06-05T10:41:59.982Z,101433.41
2017-06-05T10:44:26.337Z,101423.22
2017-06-05T10:46:52.579Z,101419.44
2017-06-05T10:49:18.836Z,101430.50
2017-06-05T10:51:45.150Z,101420.89
2017-06-05T10:54:11.480Z,101417.93
2017-06-05T10:56:37.743Z,101417.57
2017-06-05T10:59:04.004Z,101415.72
2017-06-05T11:01:30.312Z,101416.06
2017-06-05T11:03:56.709Z,101408.83
2017-06-05T11:06:23.017Z,101402.66
2017-06-05T11:08:49.333Z,101404.50
2017-06-05T11:11:16.112Z,101398.07
2017-06-05T11:13:42.649Z,101392.11
2017-06-05T11:17:37.711Z,101392.80
2017-06-05T11:20:05.413Z,101378.78
2017-06-05T11:22:33.520Z,101375.19
2017-06-05T11:25:01.729Z,101380.77
2017-06-05T11:27:31.964Z,101382.63
2017-06-05T11:30:00.138Z,101380.21
2017-06-05T11:32:27.679Z,101365.89
2017-06-05T11:34:55.251Z,101372.84
2017-06-05T11:47:03.357Z,101367.61
2017-06-05T11:49:31.359Z,101373.27
2017-06-05T11:51:59.309Z,101364.34
2017-06-05T11:54:28.131Z,101366.66
2017-06-05T11:56:56.065Z,101365.77
2017-06-05T11:59:23.783Z,101362.59
2017-06-05T12:01:51.758Z,101362.70
2017-06-05T12:04:19.159Z,101362.07
2017-06-05T12:06:47.521Z,101362.95
2017-06-05T12:09:15.251Z,101359.28
2017-06-05T12:11:43.092Z,101352.22
2017-06-05T12:14:10.754Z,101354.73
2017-06-05T12:17:38.468Z,101345.91
2017-06-05T12:20:05.674Z,101342.37
2017-06-05T12:22:33.456Z,101335.56
2017-06-05T12:25:00.415Z,101341.91
2017-06-05T12:27:27.874Z,101330.62
2017-06-05T12:29:55.145Z,101324.82
2017-06-05T12:32:22.560Z,101322.50
2017-06-05T12:34:49.836Z,101320.25
2017-06-05T12:37:16.905Z,101314.59
2017-06-05T12:39:44.239Z,101309.62
2017-06-05T12:42:11.874Z,101310.72
2017-06-05T12:44:40.058Z,101298.89
2017-06-05T12:47:07.591Z,101297.34
2017-06-05T12:49:34.988Z,101304.95
2017-06-05T12:52:02.650Z,101293.86
2017-06-05T12:54:31.020Z,101276.38
2017-06-05T12:56:58.738Z,101291.84
2017-06-05T12:59:26.418Z,101279.44
2017-06-05T13:01:53.601Z,101277.50
2017-06-05T13:04:20.913Z,101279.05
2017-06-05T13:06:47.923Z,101287.14
2017-06-05T13:09:15.438Z,101283.69
2017-06-05T13:11:43.216Z,101281.48
2017-06-05T13:14:10.139Z,101271.69
2017-06-05T13:17:37.691Z,101270.13
2017-06-05T13:20:04.565Z,101268.20
2017-06-05T13:22:31.820Z,101262.89
2017-06-05T13:24:58.942Z,101265.48
2017-06-05T13:27:27.929Z,101262.23
2017-06-05T13:29:54.928Z,101256.17
2017-06-05T13:32:22.919Z,101261.09
2017-06-05T13:34:50.255Z,101251.56
2017-06-05T13:37:17.212Z,101252.40
2017-06-05T13:39:45.110Z,101243.03
2017-06-05T13:42:12.525Z,101237.78
2017-06-05T13:44:39.281Z,101228.58
2017-06-05T13:47:06.130Z,101229.15
2017-06-05T13:49:33.824Z,101227.79
2017-06-05T13:52:00.382Z,101221.42
2017-06-05T13:54:26.916Z,101227.95
2017-06-05T13:56:54.101Z,101221.33
2017-06-05T13:59:21.359Z,101217.66
2017-06-05T14:01:48.751Z,101228.03
2017-06-05T14:04:16.360Z,101212.53
2017-06-05T14:06:43.632Z,101203.89
2017-06-05T14:09:10.843Z,101201.38
2017-06-05T14:11:38.714Z,101199.39
2017-06-05T14:14:05.812Z,101188.80
2017-06-05T14:17:38.947Z,101176.31
2017-06-05T14:20:07.147Z,101173.56
2017-06-05T14:22:34.208Z,101169.47
2017-06-05T14:25:01.394Z,101168.02
2017-06-05T14:27:29.040Z,101169.41
2017-06-05T14:29:56.283Z,101174.99
2017-06-05T14:32:23.147Z,101175.23
2017-06-05T14:34:49.950Z,101166.80
2017-06-05T14:37:16.803Z,101167.22
2017-06-05T14:39:44.679Z,101160.53
2017-06-05T14:42:11.465Z,101155.72
2017-06-05T14:44:39.237Z,101145.98
2017-06-05T14:47:05.927Z,101154.91
2017-06-05T14:49:32.168Z,101145.74
2017-06-05T14:51:59.806Z,101146.48
2017-06-05T14:54:26.488Z,101141.97
2017-06-05T14:56:53.455Z,101134.34
2017-06-05T14:59:20.666Z,101128.56
2017-06-05T15:01:47.450Z,101126.40
2017-06-05T15:04:14.591Z,101120.30
2017-06-05T15:06:43.442Z,101111.13
2017-06-05T15:09:11.289Z,101118.42
2017-06-05T15:11:38.514Z,101113.69
2017-06-05T15:14:05.220Z,101107.08
2017-06-05T15:17:38.331Z,101092.46
2017-06-05T15:20:05.525Z,101094.20
2017-06-05T15:22:32.556Z,101090.63
2017-06-05T15:24:59.153Z,101082.62
2017-06-05T15:27:26.727Z,101078.63
2017-06-05T15:29:54.194Z,101076.34
2017-06-05T15:32:21.299Z,101076.09
2017-06-05T15:34:48.483Z,101079.94
2017-06-05T15:37:17.025Z,101070.59
2017-06-05T15:39:46.053Z,101071.61
2017-06-05T15:42:13.899Z,101071.45
2017-06-05T15:44:41.383Z,101068.83
2017-06-05T15:47:09.157Z,101066.88
2017-06-05T15:49:36.835Z,101059.03
2017-06-05T15:52:03.967Z,101047.88
2017-06-05T15:54:31.671Z,101048.36
2017-06-05T15:56:58.859Z,101053.28
2017-06-05T15:59:26.014Z,101041.70
2017-06-05T16:01:53.774Z,101040.98
2017-06-05T16:04:21.606Z,101037.94
2017-06-05T16:06:48.501Z,101034.68
2017-06-05T16:09:15.268Z,101032.47
2017-06-05T16:11:42.550Z,101032.20
2017-06-05T16:14:09.960Z,101034.11
2017-06-05T16:17:37.742Z,101022.66
2017-06-05T16:20:04.425Z,101022.98
2017-06-05T16:22:31.480Z,101022.84
2017-06-05T16:24:58.432Z,101016.30
2017-06-05T16:27:25.460Z,101016.66
2017-06-05T16:29:52.465Z,101009.61
2017-06-05T16:32:19.551Z,101005.77
2017-06-05T16:34:46.494Z,101009.11
2017-06-05T16:37:13.082Z,101006.63
2017-06-05T16:39:40.076Z,101001.84
2017-06-05T16:42:06.893Z,101001.05
2017-06-05T16:44:33.831Z,100991.06
2017-06-05T16:47:01.043Z,100991.01
2017-06-05T16:49:28.093Z,100977.86
2017-06-05T16:51:54.756Z,100985.47
2017-06-05T16:54:21.717Z,100979.23
2017-06-05T16:56:48.035Z,100976.14
2017-06-05T16:59:14.760Z,100971.44
2017-06-05T17:01:41.534Z,100967.77
2017-06-05T17:04:08.523Z,100964.61
2017-06-05T17:06:34.784Z,100957.25
2017-06-05T17:09:01.730Z,100958.18
2017-06-05T17:11:28.808Z,100955.89
2017-06-05T17:13:55.900Z,100943.03
2017-06-05T17:17:37.117Z,100948.84
2017-06-05T17:20:04.323Z,100945.69
2017-06-05T17:22:31.370Z,100943.03
2017-06-05T17:24:58.466Z,100941.63
2017-06-05T17:27:25.710Z,100937.41
2017-06-05T17:29:52.552Z,100934.98
2017-06-05T17:32:19.535Z,100927.50
2017-06-05T17:34:47.159Z,100915.74
2017-06-05T17:37:13.451Z,100917.03
2017-06-05T17:39:39.784Z,100905.16
2017-06-05T17:42:06.803Z,100903.13
2017-06-05T17:44:33.376Z,100896.88
2017-06-05T17:47:00.806Z,100901.56
2017-06-05T17:49:27.856Z,100904.50
2017-06-05T17:51:54.812Z,100899.42
2017-06-05T17:54:22.040Z,100896.23
2017-06-05T17:56:49.437Z,100898.55
2017-06-05T17:59:16.413Z,100894.20
2017-06-05T18:01:43.742Z,100896.06
2017-06-05T18:04:10.102Z,100897.67
2017-06-05T18:06:36.643Z,100893.63
2017-06-05T18:09:03.858Z,100885.31
2017-06-05T18:11:31.043Z,100886.06
2017-06-05T18:13:58.096Z,100880.52
2017-06-05T18:17:37.616Z,100873.77
2017-06-05T18:20:04.478Z,100878.22
2017-06-05T18:22:31.630Z,100873.56
2017-06-05T18:24:58.652Z,100870.70
2017-06-05T18:27:25.872Z,100869.27
2017-06-05T18:29:52.592Z,100857.13
2017-06-05T18:32:19.800Z,100857.53
2017-06-05T18:34:46.764Z,100854.70
2017-06-05T18:37:13.595Z,100856.30
2017-06-05T18:39:40.734Z,100851.53
2017-06-05T18:42:07.586Z,100845.03
2017-06-05T18:44:34.699Z,100845.42
2017-06-05T18:47:01.170Z,100848.60
2017-06-05T18:49:28.347Z,100841.98
2017-06-05T18:51:54.955Z,100834.65
2017-06-05T18:54:21.710Z,100843.04
2017-06-05T18:56:48.484Z,100835.31
2017-06-05T18:59:14.736Z,100835.23
2017-06-05T19:01:41.975Z,100829.94
2017-06-05T19:04:09.080Z,100828.06
2017-06-05T19:06:36.025Z,100826.34
2017-06-05T19:09:03.440Z,100822.14
2017-06-05T19:11:30.482Z,100825.45
2017-06-05T19:13:57.485Z,100819.77
2017-06-05T19:18:09.149Z,100811.27
2017-06-05T19:20:36.174Z,100806.46
2017-06-05T19:23:03.321Z,100806.94
2017-06-05T19:25:30.437Z,100807.87
2017-06-05T19:27:57.703Z,100802.72
2017-06-05T19:30:24.749Z,100793.61
2017-06-05T19:32:51.896Z,100795.37
2017-06-05T19:35:19.002Z,100787.13
2017-06-05T19:37:47.265Z,100785.91
2017-06-05T19:40:13.904Z,100786.69
2017-06-05T19:42:41.004Z,100783.27
2017-06-05T19:45:08.098Z,100785.89
2017-06-05T19:47:35.163Z,100790.64
2017-06-05T19:50:02.397Z,100785.26
2017-06-05T19:52:29.546Z,100786.09
2017-06-05T19:54:56.379Z,100778.54
2017-06-05T19:57:23.455Z,100778.47
2017-06-05T19:59:50.836Z,100772.23
2017-06-05T20:02:17.918Z,100775.72
2017-06-05T20:04:44.988Z,100774.03
2017-06-05T20:07:12.003Z,100770.27
2017-06-05T20:09:39.100Z,100766.64
2017-06-05T20:12:06.189Z,100771.61
2017-06-05T20:14:33.222Z,100767.94
2017-06-05T20:17:37.089Z,100762.78
2017-06-05T20:20:04.087Z,100756.50
2017-06-05T20:22:31.285Z,100755.59
2017-06-05T20:24:58.303Z,100752.65
2017-06-05T20:27:25.547Z,100752.66
2017-06-05T20:29:52.418Z,100746.89
2017-06-05T20:32:19.378Z,100742.75
2017-06-05T20:34:46.289Z,100740.70
2017-06-05T20:37:13.245Z,100733.53
2017-06-05T20:39:40.204Z,100732.27
2017-06-05T20:42:07.108Z,100730.50
2017-06-05T20:44:34.029Z,100731.76
2017-06-05T20:47:00.303Z,100726.30
2017-06-05T20:49:26.578Z,100722.68
2017-06-05T20:51:52.817Z,100717.44
2017-06-05T20:54:19.215Z,100709.95
2017-06-05T20:56:45.526Z,100711.92
2017-06-05T20:59:11.760Z,100711.92
2017-06-05T21:01:38.022Z,100702.41
2017-06-05T21:04:04.282Z,100705.47
2017-06-05T21:06:30.610Z,100695.47
2017-06-05T21:08:56.840Z,100692.27
2017-06-05T21:11:23.064Z,100684.27
2017-06-05T21:13:49.306Z,100682.30
2017-06-05T21:17:37.441Z,100674.09
2017-06-05T21:20:03.708Z,100664.66
2017-06-05T21:22:29.955Z,100662.95
2017-06-05T21:24:56.276Z,100657.66
2017-06-05T21:27:22.542Z,100651.91
2017-06-05T21:29:48.863Z,100653.53
2017-06-05T21:32:15.134Z,100651.16
2017-06-05T21:34:41.406Z,100642.40
2017-06-05T21:37:07.649Z,100646.09
2017-06-05T21:39:33.893Z,100642.47
2017-06-05T21:42:00.276Z,100634.44
2017-06-05T21:44:26.539Z,100634.03
2017-06-05T21:46:52.763Z,100628.02
2017-06-05T21:49:18.974Z,100623.05
2017-06-05T21:51:45.225Z,100622.30
2017-06-05T21:54:11.554Z,100610.77
2017-06-05T21:56:37.803Z,100606.73
2017-06-05T21:59:04.046Z,100607.22
2017-06-05T22:01:30.282Z,100600.85
2017-06-05T22:03:56.566Z,100602.84
2017-06-05T22:06:22.856Z,100593.14
2017-06-05T22:08:49.092Z,100593.89
2017-06-05T22:11:15.346Z,100583.98
2017-06-05T22:13:41.570Z,100581.26
2017-06-05T22:17:36.493Z,100583.59
2017-06-05T22:20:02.724Z,100574.30
2017-06-05T22:22:29.022Z,100571.36
2017-06-05T22:24:55.235Z,100566.51
2017-06-05T22:27:21.459Z,100558.75
2017-06-05T22:29:47.765Z,100555.50
2017-06-05T22:32:13.991Z,100555.64
2017-06-05T22:34:40.214Z,100548.64
2017-06-05T22:37:06.434Z,100544.06
2017-06-05T22:39:32.696Z,100532.13
2017-06-05T22:41:58.921Z,100529.76
2017-06-05T22:44:25.227Z,100524.48
2017-06-05T22:46:51.555Z,100518.49
2017-06-05T22:49:17.815Z,100518.85
2017-06-05T22:51:44.142Z,100514.11
2017-06-05T22:54:10.370Z,100509.05
2017-06-05T22:56:36.636Z,100502.56
2017-06-05T22:59:02.935Z,100494.78
2017-06-05T23:01:29.207Z,100490.08
2017-06-05T23:03:55.436Z,100484.66
2017-06-05T23:06:21.698Z,100476.92
2017-06-05T23:08:47.967Z,100476.31
2017-06-05T23:11:14.276Z,100467.72
2017-06-05T23:13:40.548Z,100464.85
2017-06-05T23:17:36.769Z,100462.41
2017-06-05T23:20:03.113Z,100448.74
2017-06-05T23:22:29.360Z,100439.14
2017-06-05T23:24:55.724Z,100433.41
2017-06-05T23:27:21.969Z,100425.31
2017-06-05T23:29:48.231Z,100427.39
2017-06-05T23:32:14.500Z,100418.69
2017-06-05T23:34:40.758Z,100413.96
2017-06-05T23:37:07.013Z,100410.20
2017-06-05T23:39:33.254Z,100402.18
2017-06-05T23:41:59.559Z,100392.39
2017-06-05T23:44:25.845Z,100390.43
2017-06-05T23:46:52.086Z,100384.02
2017-06-05T23:49:18.550Z,100384.38
2017-06-05T23:51:44.781Z,100382.63
2017-06-05T23:54:11.107Z,100375.31
2017-06-05T23:56:37.411Z,100367.80
2017-06-05T23:59:03.733Z,100367.16
